Time;durP1;ratioP1;P1;durP2;ratioP2;P2;SDS_P1;SDS_P2;PMS_P1;PMS_P2;Temp;Humidity;BMP_temperature;BMP_pressure;BME280_temperature;BME280_humidity;BME280_pressure;Samples;Min_cycle;Max_cycle;Signal;HPM_P1;HPM_P2
2024/01/20 00:01:47;;;;;;;88.32;30.20;;;1.40;99.90;;;;;;5038470;28;20029;-77
2024/01/20 00:04:13;;;;;;;88.03;30.35;;;1.40;99.90;;;;;;5035635;28;20025;-77
2024/01/20 00:06:39;;;;;;;84.00;29.73;;;1.40;99.90;;;;;;5037081;28;20040;-77
2024/01/20 00:09:05;;;;;;;81.68;29.02;;;1.30;99.90;;;;;;5032513;28;20086;-78
2024/01/20 00:11:30;;;;;;;92.88;31.30;;;1.40;99.90;;;;;;5034533;28;20071;-78
2024/01/20 00:13:57;;;;;;;89.15;30.23;;;1.40;99.90;;;;;;5034260;28;20030;-79
2024/01/20 00:16:22;;;;;;;94.45;30.30;;;1.50;99.90;;;;;;5035869;28;20048;-77
2024/01/20 00:18:48;;;;;;;86.18;28.65;;;1.50;99.90;;;;;;5037892;28;20029;-77
2024/01/20 00:21:14;;;;;;;86.85;30.23;;;1.50;99.90;;;;;;5036240;28;20108;-77
2024/01/20 00:23:39;;;;;;;91.57;30.65;;;1.50;99.90;;;;;;5030660;28;20071;-77
2024/01/20 00:26:05;;;;;;;88.80;29.80;;;1.40;99.90;;;;;;5033953;28;20040;-77
2024/01/20 00:28:31;;;;;;;85.38;29.85;;;1.50;99.90;;;;;;5037351;28;20367;-78
2024/01/20 00:30:56;;;;;;;77.47;28.13;;;1.50;99.90;;;;;;5037390;28;20432;-77
2024/01/20 00:33:22;;;;;;;81.93;28.45;;;1.50;99.90;;;;;;5036926;28;20033;-77
2024/01/20 00:35:48;;;;;;;81.75;28.48;;;1.50;99.90;;;;;;5036951;28;20049;-77
2024/01/20 00:38:14;;;;;;;77.50;27.83;;;1.60;99.90;;;;;;5034654;28;20521;-77
2024/01/20 00:40:40;;;;;;;80.78;27.23;;;1.60;99.90;;;;;;5031456;28;20079;-77
2024/01/20 00:43:06;;;;;;;76.93;26.92;;;1.50;99.90;;;;;;5034416;28;20303;-77
2024/01/20 00:45:32;;;;;;;86.10;26.77;;;1.50;99.90;;;;;;5037081;28;20032;-77
2024/01/20 00:47:57;;;;;;;72.30;27.23;;;1.60;99.90;;;;;;5030482;28;20467;-77
2024/01/20 00:50:23;;;;;;;74.53;27.60;;;1.60;99.90;;;;;;5034649;28;20104;-77
2024/01/20 00:52:49;;;;;;;73.07;26.45;;;1.60;99.90;;;;;;5030572;28;20076;-78
2024/01/20 00:55:15;;;;;;;83.68;31.63;;;1.60;99.90;;;;;;5032358;28;20029;-78
2024/01/20 00:57:41;;;;;;;85.00;28.50;;;1.50;99.90;;;;;;5029451;28;20026;-77
2024/01/20 01:00:08;;;;;;;72.93;26.45;;;1.60;99.90;;;;;;5030949;28;20453;-78
2024/01/20 01:02:35;;;;;;;71.15;25.90;;;1.60;99.90;;;;;;5036790;28;20025;-77
2024/01/20 01:05:01;;;;;;;74.38;27.30;;;1.60;99.90;;;;;;5033665;28;20029;-78
2024/01/20 01:07:27;;;;;;;69.30;26.52;;;1.60;99.90;;;;;;5033203;28;20040;-78
2024/01/20 01:09:53;;;;;;;76.70;27.08;;;1.60;99.90;;;;;;5033741;28;20028;-78
2024/01/20 01:12:18;;;;;;;77.80;27.90;;;1.50;99.90;;;;;;5035252;28;20025;-77
2024/01/20 01:14:44;;;;;;;71.85;25.13;;;1.50;99.90;;;;;;5034273;28;20099;-77
2024/01/20 01:17:10;;;;;;;71.63;26.65;;;1.50;99.90;;;;;;5033640;28;20029;-78
2024/01/20 01:19:37;;;;;;;71.47;26.58;;;1.60;99.90;;;;;;5034059;28;20104;-78
2024/01/20 01:22:02;;;;;;;70.50;26.20;;;1.60;99.90;;;;;;5036484;28;20556;-78
2024/01/20 01:24:28;;;;;;;67.35;26.70;;;1.60;99.90;;;;;;5031187;28;20032;-78
2024/01/20 01:26:54;;;;;;;73.97;27.38;;;1.60;99.90;;;;;;5036358;28;20025;-77
2024/01/20 01:29:20;;;;;;;71.55;27.40;;;1.70;99.90;;;;;;5032231;28;20088;-78
2024/01/20 01:31:45;;;;;;;66.60;24.00;;;1.60;99.90;;;;;;5031800;28;20037;-77
2024/01/20 01:34:11;;;;;;;59.20;25.88;;;1.60;99.90;;;;;;5034882;28;20036;-78
2024/01/20 01:36:37;;;;;;;72.90;26.25;;;1.60;99.90;;;;;;5032548;28;20021;-78
2024/01/20 01:39:02;;;;;;;77.47;26.00;;;1.60;99.90;;;;;;5042671;28;20473;-78
2024/01/20 01:41:28;;;;;;;77.55;23.92;;;1.60;99.90;;;;;;5034157;28;20033;-78
2024/01/20 01:43:54;;;;;;;66.13;24.15;;;1.60;99.90;;;;;;5069114;28;20017;-78
2024/01/20 01:46:20;;;;;;;66.68;24.88;;;1.70;99.90;;;;;;5072037;28;20051;-78
2024/01/20 01:48:46;;;;;;;65.97;25.23;;;1.60;99.90;;;;;;5072080;28;20035;-78
2024/01/20 01:51:12;;;;;;;72.53;25.92;;;1.60;99.90;;;;;;5070949;28;20028;-78
2024/01/20 01:53:39;;;;;;;64.15;23.83;;;1.50;99.90;;;;;;5071714;28;20054;-78
2024/01/20 01:56:06;;;;;;;67.97;24.75;;;1.60;99.90;;;;;;5071280;28;20029;-78
2024/01/20 01:58:32;;;;;;;63.97;23.85;;;1.60;99.90;;;;;;5071968;28;20024;-78
2024/01/20 02:00:59;;;;;;;69.07;22.65;;;1.60;99.90;;;;;;5070044;28;20028;-78
2024/01/20 02:03:25;;;;;;;79.03;25.75;;;1.60;99.90;;;;;;5050743;28;20367;-78
2024/01/20 02:05:51;;;;;;;65.00;22.35;;;1.60;99.90;;;;;;5051367;28;20078;-78
2024/01/20 02:08:17;;;;;;;67.68;24.83;;;1.60;99.90;;;;;;5051623;28;20077;-78
2024/01/20 02:10:46;;;;;;;66.25;24.23;;;1.60;99.90;;;;;;5051511;28;20018;-77
2024/01/20 02:13:13;;;;;;;64.78;24.58;;;1.60;99.90;;;;;;5050513;28;20025;-77
2024/01/20 02:15:39;;;;;;;62.15;23.23;;;1.60;99.90;;;;;;5051445;28;20025;-78
2024/01/20 02:18:05;;;;;;;64.95;23.70;;;1.50;99.90;;;;;;5051783;28;20071;-78
2024/01/20 02:20:31;;;;;;;62.75;22.70;;;1.60;99.90;;;;;;5062533;28;20048;-78
2024/01/20 02:22:57;;;;;;;71.32;25.27;;;1.40;99.90;;;;;;5070465;28;20024;-78
2024/01/20 02:25:23;;;;;;;70.00;24.92;;;1.50;99.90;;;;;;5070618;28;20037;-78
2024/01/20 02:27:48;;;;;;;63.65;25.13;;;1.50;99.90;;;;;;5053373;28;20025;-78
2024/01/20 02:30:14;;;;;;;65.70;25.60;;;1.60;99.90;;;;;;5051212;28;20492;-78
2024/01/20 02:32:40;;;;;;;64.88;24.40;;;1.60;99.90;;;;;;5051294;28;20462;-78
2024/01/20 02:35:07;;;;;;;66.45;23.67;;;1.70;99.90;;;;;;5049895;28;20494;-78
2024/01/20 02:37:32;;;;;;;63.72;24.52;;;1.70;99.90;;;;;;5051552;28;20025;-78
2024/01/20 02:39:58;;;;;;;67.95;24.25;;;1.70;99.90;;;;;;5055298;28;20444;-77
2024/01/20 02:42:24;;;;;;;72.20;25.67;;;1.60;99.90;;;;;;5055370;28;20053;-78
2024/01/20 02:44:50;;;;;;;77.07;27.23;;;1.60;99.90;;;;;;5054107;28;20025;-78
2024/01/20 02:47:17;;;;;;;72.85;25.65;;;1.60;99.90;;;;;;5056606;28;20017;-78
2024/01/20 02:49:43;;;;;;;66.30;24.35;;;1.60;99.90;;;;;;5054843;28;20040;-78
2024/01/20 02:52:08;;;;;;;66.55;26.52;;;1.70;99.90;;;;;;5055056;28;20378;-78
2024/01/20 02:54:34;;;;;;;79.03;26.88;;;1.70;99.90;;;;;;5054584;28;20079;-78
2024/01/20 02:57:00;;;;;;;69.40;25.63;;;1.60;99.90;;;;;;5052142;28;20021;-78
2024/01/20 02:59:25;;;;;;;67.85;24.60;;;1.70;99.90;;;;;;5055105;28;20033;-78
2024/01/20 03:01:51;;;;;;;68.63;25.67;;;1.70;99.90;;;;;;5054996;28;20377;-78
2024/01/20 03:04:17;;;;;;;68.32;25.63;;;1.60;99.90;;;;;;5051623;28;20527;-78
2024/01/20 03:06:43;;;;;;;65.95;23.55;;;1.60;99.90;;;;;;5058811;28;20028;-78
2024/01/20 03:09:14;;;;;;;72.65;25.05;;;1.60;99.90;;;;;;5054000;28;20021;-77
2024/01/20 03:11:41;;;;;;;65.63;24.27;;;1.50;99.90;;;;;;5053938;28;20078;-78
2024/01/20 03:14:07;;;;;;;67.68;24.83;;;1.60;99.90;;;;;;5055018;28;20024;-77
2024/01/20 03:16:33;;;;;;;67.45;24.17;;;1.60;99.90;;;;;;5054453;28;20029;-78
2024/01/20 03:18:58;;;;;;;67.30;25.60;;;1.60;99.90;;;;;;5053339;28;20032;-78
2024/01/20 03:21:24;;;;;;;70.13;23.95;;;1.60;99.90;;;;;;5054697;28;20079;-78
2024/01/20 03:23:53;;;;;;;74.70;26.67;;;1.50;99.90;;;;;;5053900;28;20031;-78
2024/01/20 03:26:19;;;;;;;66.63;25.27;;;1.50;99.90;;;;;;5053064;28;20020;-78
2024/01/20 03:28:45;;;;;;;65.97;24.50;;;1.50;99.90;;;;;;5054452;28;20035;-78
2024/01/20 03:31:11;;;;;;;63.72;23.52;;;1.60;99.90;;;;;;5054812;28;20032;-78
2024/01/20 03:33:37;;;;;;;63.85;23.48;;;1.50;99.90;;;;;;5074321;28;20067;-78
2024/01/20 03:36:03;;;;;;;69.40;24.45;;;1.50;99.90;;;;;;5074441;28;20029;-77
2024/01/20 03:38:29;;;;;;;70.45;25.52;;;1.50;99.90;;;;;;5073257;28;20099;-78
2024/01/20 03:40:54;;;;;;;71.90;23.83;;;1.50;99.90;;;;;;5074492;28;20039;-78
2024/01/20 03:43:20;;;;;;;70.82;23.90;;;1.50;99.90;;;;;;5073363;28;20050;-78
2024/01/20 03:45:46;;;;;;;61.22;23.52;;;1.50;99.90;;;;;;5072724;28;20039;-77
2024/01/20 03:48:12;;;;;;;64.53;24.25;;;1.50;99.90;;;;;;5072349;28;20099;-78
2024/01/20 03:50:38;;;;;;;69.90;26.08;;;1.60;99.90;;;;;;5060316;28;20025;-78
2024/01/20 03:53:05;;;;;;;67.32;25.23;;;1.60;99.90;;;;;;5055737;28;20029;-78
2024/01/20 03:55:32;;;;;;;60.17;24.00;;;1.60;99.90;;;;;;5074249;28;20025;-77
2024/01/20 03:57:58;;;;;;;65.15;24.35;;;1.60;99.90;;;;;;5073611;28;20016;-77
2024/01/20 04:00:23;;;;;;;61.17;23.45;;;1.60;99.90;;;;;;5073295;28;20047;-78
2024/01/20 04:02:49;;;;;;;66.50;23.38;;;1.50;99.90;;;;;;5073256;28;20025;-78
2024/01/20 04:05:15;;;;;;;65.85;25.13;;;1.60;99.90;;;;;;5073892;28;20063;-78
2024/01/20 04:07:42;;;;;;;56.50;21.65;;;1.50;99.90;;;;;;5056436;28;20083;-78
2024/01/20 04:10:08;;;;;;;58.10;22.88;;;1.50;99.90;;;;;;5053673;28;20021;-78
2024/01/20 04:12:36;;;;;;;66.63;25.65;;;1.40;99.90;;;;;;5053774;28;20021;-78
2024/01/20 04:15:01;;;;;;;63.30;24.75;;;1.50;99.90;;;;;;5053550;28;20056;-78
2024/01/20 04:17:27;;;;;;;61.42;24.73;;;1.50;99.90;;;;;;5052522;28;20517;-78
2024/01/20 04:19:53;;;;;;;60.47;24.20;;;1.60;99.90;;;;;;5053248;28;20425;-78
2024/01/20 04:22:18;;;;;;;63.05;22.83;;;1.60;99.90;;;;;;5052771;28;20028;-78
2024/01/20 04:24:44;;;;;;;59.30;21.67;;;1.60;99.90;;;;;;5057440;28;20024;-77
2024/01/20 04:27:10;;;;;;;61.58;22.65;;;1.50;99.90;;;;;;5071758;28;20205;-78
2024/01/20 04:29:36;;;;;;;57.17;21.50;;;1.50;99.90;;;;;;5072116;28;20021;-77
2024/01/20 04:32:01;;;;;;;57.28;22.38;;;1.50;99.90;;;;;;5068644;28;20036;-77
2024/01/20 04:34:27;;;;;;;65.90;23.02;;;1.40;99.90;;;;;;5042837;28;20124;-77
2024/01/20 04:36:53;;;;;;;56.90;22.55;;;1.50;99.90;;;;;;5052494;28;20112;-78
2024/01/20 04:39:18;;;;;;;57.45;23.58;;;1.50;99.90;;;;;;5052191;28;20099;-77
2024/01/20 04:41:44;;;;;;;62.47;23.85;;;1.50;99.90;;;;;;5053370;28;20024;-77
2024/01/20 04:44:10;;;;;;;59.85;24.30;;;1.50;99.90;;;;;;5052363;28;20187;-78
2024/01/20 04:46:35;;;;;;;59.53;23.48;;;1.50;99.90;;;;;;5051026;28;20549;-78
2024/01/20 04:49:01;;;;;;;62.55;23.65;;;1.40;99.90;;;;;;5069238;28;20040;-78
2024/01/20 04:51:27;;;;;;;56.55;22.63;;;1.40;99.90;;;;;;5073050;28;20124;-78
2024/01/20 04:53:52;;;;;;;53.90;21.60;;;1.50;99.90;;;;;;5071387;28;20082;-78
2024/01/20 04:56:22;;;;;;;57.38;21.23;;;1.50;99.90;;;;;;5072972;28;20025;-78
2024/01/20 04:58:48;;;;;;;59.22;22.73;;;1.40;99.90;;;;;;5072838;28;20108;-77
2024/01/20 05:01:14;;;;;;;54.25;21.95;;;1.30;99.90;;;;;;5071614;28;20042;-78
2024/01/20 05:03:40;;;;;;;54.15;21.40;;;1.30;99.90;;;;;;5069180;28;20223;-78
2024/01/20 05:06:06;;;;;;;58.88;21.38;;;1.40;99.90;;;;;;5052388;28;20580;-77
2024/01/20 05:08:31;;;;;;;58.20;22.20;;;1.40;99.90;;;;;;5051289;28;20100;-77
2024/01/20 05:10:57;;;;;;;61.00;22.33;;;1.40;99.90;;;;;;5049692;28;20027;-77
2024/01/20 05:13:23;;;;;;;57.33;22.75;;;1.40;99.90;;;;;;5041499;28;20490;-78
2024/01/20 05:15:48;;;;;;;61.20;23.20;;;1.30;99.90;;;;;;5030468;28;20100;-78
2024/01/20 05:18:14;;;;;;;59.60;22.75;;;1.40;99.90;;;;;;5044835;28;20070;-78
2024/01/20 05:20:40;;;;;;;57.20;22.23;;;1.40;99.90;;;;;;5071129;28;20036;-78
2024/01/20 05:23:06;;;;;;;56.97;22.88;;;1.40;99.90;;;;;;5071872;28;20021;-77
2024/01/20 05:25:31;;;;;;;55.17;22.40;;;1.50;99.90;;;;;;5072287;28;20028;-78
2024/01/20 05:27:57;;;;;;;66.03;23.80;;;1.40;99.90;;;;;;5072466;28;20419;-78
2024/01/20 05:30:23;;;;;;;62.30;22.92;;;1.40;99.90;;;;;;5071938;28;20028;-78
2024/01/20 05:32:49;;;;;;;63.35;23.40;;;1.40;99.90;;;;;;5071390;28;20024;-78
2024/01/20 05:35:15;;;;;;;58.58;22.35;;;1.30;99.90;;;;;;5072259;28;20043;-78
2024/01/20 05:37:41;;;;;;;58.72;22.17;;;1.50;99.90;;;;;;5071330;28;20052;-77
2024/01/20 05:40:07;;;;;;;63.45;21.83;;;1.40;99.90;;;;;;5064363;28;20052;-77
2024/01/20 05:42:33;;;;;;;67.35;22.48;;;1.40;99.90;;;;;;5052173;28;20017;-78
2024/01/20 05:44:59;;;;;;;56.05;22.63;;;1.40;99.90;;;;;;5058501;28;20028;-78
2024/01/20 05:47:25;;;;;;;59.20;21.70;;;1.40;99.90;;;;;;5071662;28;20051;-77
2024/01/20 05:49:51;;;;;;;55.92;20.70;;;1.40;99.90;;;;;;5071668;28;20481;-78
2024/01/20 05:52:17;;;;;;;57.90;22.83;;;1.30;99.90;;;;;;5072327;28;20039;-78
2024/01/20 05:54:43;;;;;;;62.53;24.48;;;1.40;99.90;;;;;;5071592;28;20078;-77
2024/01/20 05:57:08;;;;;;;58.10;21.58;;;1.40;99.90;;;;;;5069985;28;20124;-78
2024/01/20 05:59:34;;;;;;;53.45;21.02;;;1.40;99.90;;;;;;5063311;28;20029;-77
2024/01/20 06:02:00;;;;;;;61.72;24.08;;;1.40;99.90;;;;;;5041093;28;20040;-77
2024/01/20 06:04:26;;;;;;;59.92;23.08;;;1.40;99.90;;;;;;5031967;28;20013;-77
2024/01/20 06:06:53;;;;;;;61.00;24.10;;;1.40;99.90;;;;;;5041525;28;20466;-77
2024/01/20 06:09:19;;;;;;;62.35;23.45;;;1.40;99.90;;;;;;5051099;28;20450;-77
2024/01/20 06:11:44;;;;;;;56.67;21.65;;;1.30;99.90;;;;;;5052661;28;20027;-77
2024/01/20 06:14:10;;;;;;;57.10;22.30;;;1.30;99.90;;;;;;5055994;28;20029;-78
2024/01/20 06:16:38;;;;;;;57.75;22.50;;;1.30;99.90;;;;;;5055887;28;20500;-77
2024/01/20 06:19:05;;;;;;;53.08;20.85;;;1.20;99.90;;;;;;5055222;28;20035;-77
2024/01/20 06:21:31;;;;;;;53.55;22.00;;;1.10;99.90;;;;;;5055524;28;20105;-77
2024/01/20 06:23:57;;;;;;;62.42;22.60;;;1.10;99.90;;;;;;5055564;28;20466;-77
2024/01/20 06:26:23;;;;;;;57.30;21.65;;;1.20;99.90;;;;;;5054739;28;20055;-77
2024/01/20 06:28:49;;;;;;;55.60;21.33;;;1.20;99.90;;;;;;5052818;28;20021;-77
2024/01/20 06:31:28;;;;;;;58.33;20.35;;;1.10;99.90;;;;;;5050411;28;20108;-77
2024/01/20 06:33:54;;;;;;;53.85;19.65;;;1.20;99.90;;;;;;5062391;28;20431;-77
2024/01/20 06:36:26;;;;;;;50.95;18.60;;;1.10;99.90;;;;;;5074346;28;20020;-78
2024/01/20 06:38:53;;;;;;;51.88;19.60;;;1.10;99.90;;;;;;5056491;28;20068;-78
2024/01/20 06:41:18;;;;;;;53.83;20.40;;;1.10;99.90;;;;;;5054596;28;20021;-78
2024/01/20 06:43:44;;;;;;;50.42;20.63;;;1.10;99.90;;;;;;5053900;28;20029;-78
2024/01/20 06:46:10;;;;;;;54.60;20.77;;;1.10;99.90;;;;;;5054790;28;20104;-77
2024/01/20 06:48:35;;;;;;;56.00;20.63;;;1.10;99.90;;;;;;5055159;28;20060;-78
2024/01/20 06:51:03;;;;;;;58.33;21.90;;;1.10;99.90;;;;;;5069764;28;20093;-77
2024/01/20 06:53:29;;;;;;;56.63;21.85;;;1.20;99.90;;;;;;5075046;28;20027;-77
2024/01/20 06:55:55;;;;;;;62.78;23.65;;;1.20;99.90;;;;;;5048835;28;20362;-77
2024/01/20 06:58:22;;;;;;;58.67;24.73;;;1.20;99.90;;;;;;5053101;28;20419;-77
2024/01/20 07:00:47;;;;;;;58.47;23.13;;;1.20;99.90;;;;;;5054183;28;20028;-77
2024/01/20 07:03:14;;;;;;;58.78;22.60;;;1.20;99.90;;;;;;5054320;28;20029;-77
2024/01/20 07:05:40;;;;;;;56.47;22.00;;;1.20;99.90;;;;;;5070403;28;20028;-77
2024/01/20 07:08:06;;;;;;;63.38;22.58;;;1.00;99.90;;;;;;5054329;28;20025;-77
2024/01/20 07:10:31;;;;;;;68.18;24.42;;;1.10;99.90;;;;;;5053892;28;20028;-77
2024/01/20 07:12:58;;;;;;;60.40;24.92;;;1.00;99.90;;;;;;5054747;28;20535;-77
2024/01/20 07:15:24;;;;;;;60.22;23.10;;;1.10;99.90;;;;;;5054710;28;20063;-77
2024/01/20 07:17:49;;;;;;;56.40;22.92;;;1.10;99.90;;;;;;5054141;28;20485;-77
2024/01/20 07:20:15;;;;;;;61.85;23.15;;;1.00;99.90;;;;;;5057355;28;20048;-78
2024/01/20 07:22:41;;;;;;;65.32;24.08;;;1.10;99.90;;;;;;5073818;28;20032;-77
2024/01/20 07:25:08;;;;;;;71.75;25.20;;;1.10;99.90;;;;;;5072654;28;20472;-77
2024/01/20 07:27:34;;;;;;;70.85;25.95;;;1.10;99.90;;;;;;5067591;28;20017;-77
2024/01/20 07:30:00;;;;;;;68.25;25.17;;;1.10;99.90;;;;;;5054272;28;20089;-78
2024/01/20 07:32:26;;;;;;;75.70;26.50;;;1.10;99.90;;;;;;5054394;28;20029;-77
2024/01/20 07:34:52;;;;;;;72.32;26.70;;;1.10;99.90;;;;;;5054334;28;20032;-77
2024/01/20 07:37:18;;;;;;;69.03;26.83;;;1.20;99.90;;;;;;5053104;28;20029;-77
2024/01/20 07:39:43;;;;;;;69.80;26.27;;;1.20;99.90;;;;;;5058958;28;20493;-77
2024/01/20 07:42:10;;;;;;;64.50;25.98;;;1.20;99.90;;;;;;5074346;28;20063;-77
2024/01/20 07:44:36;;;;;;;69.78;26.20;;;1.20;99.90;;;;;;5074189;28;20466;-78
2024/01/20 07:47:03;;;;;;;66.18;26.05;;;1.10;99.90;;;;;;5052802;28;20111;-77
2024/01/20 07:49:29;;;;;;;71.45;25.02;;;1.10;99.90;;;;;;5048235;28;20037;-77
2024/01/20 07:51:55;;;;;;;69.97;25.88;;;1.20;99.90;;;;;;5052610;28;20029;-77
2024/01/20 07:54:21;;;;;;;65.53;24.15;;;1.20;99.90;;;;;;5052924;28;20025;-77
2024/01/20 07:56:47;;;;;;;61.17;23.15;;;1.30;99.90;;;;;;5052839;28;20025;-77
2024/01/20 07:59:12;;;;;;;53.58;22.67;;;1.20;99.90;;;;;;5051818;28;20033;-77
2024/01/20 08:01:38;;;;;;;57.58;22.85;;;1.10;99.90;;;;;;5053506;28;20078;-77
2024/01/20 08:04:05;;;;;;;63.75;22.25;;;1.10;99.90;;;;;;5064243;28;20025;-77
2024/01/20 08:06:31;;;;;;;60.53;21.83;;;1.00;99.90;;;;;;5052652;28;20071;-76
2024/01/20 08:08:57;;;;;;;56.53;21.58;;;0.90;99.90;;;;;;5052273;28;20045;-77
2024/01/20 08:11:22;;;;;;;64.75;23.48;;;1.00;99.90;;;;;;5053320;28;20029;-78
2024/01/20 08:13:49;;;;;;;54.38;21.38;;;1.00;99.90;;;;;;5052773;28;20398;-77
2024/01/20 08:16:14;;;;;;;70.80;25.20;;;1.20;99.90;;;;;;5049489;28;20025;-77
2024/01/20 08:18:40;;;;;;;64.50;24.15;;;1.20;99.90;;;;;;5053406;28;20033;-77
2024/01/20 08:21:06;;;;;;;65.63;24.67;;;1.20;99.90;;;;;;5053428;28;20055;-77
2024/01/20 08:23:33;;;;;;;65.13;23.23;;;1.30;99.90;;;;;;5053304;28;20052;-77
2024/01/20 08:25:59;;;;;;;67.47;25.08;;;1.10;99.90;;;;;;5053274;28;20025;-77
2024/01/20 08:28:25;;;;;;;62.78;24.35;;;1.20;99.90;;;;;;5051796;28;20043;-77
2024/01/20 08:30:51;;;;;;;64.05;24.98;;;1.10;99.90;;;;;;5038159;28;20025;-77
2024/01/20 08:33:17;;;;;;;64.60;24.70;;;1.10;99.90;;;;;;5040804;28;20017;-77
2024/01/20 08:35:43;;;;;;;64.30;24.38;;;1.20;99.90;;;;;;5052897;28;20159;-77
2024/01/20 08:38:08;;;;;;;60.15;24.63;;;1.10;99.90;;;;;;5058053;28;20028;-77
2024/01/20 08:40:34;;;;;;;60.92;23.90;;;1.10;99.90;;;;;;5055536;28;20108;-77
2024/01/20 08:43:00;;;;;;;66.05;24.17;;;1.20;99.90;;;;;;5052884;28;20516;-76
2024/01/20 08:45:26;;;;;;;67.20;25.15;;;1.20;99.90;;;;;;5052529;28;20161;-77
2024/01/20 08:47:51;;;;;;;64.55;24.13;;;1.30;99.90;;;;;;5051752;28;20028;-77
2024/01/20 08:50:18;;;;;;;61.15;23.27;;;1.30;99.90;;;;;;5040164;28;20026;-77
2024/01/20 08:52:43;;;;;;;65.85;25.40;;;1.40;99.90;;;;;;5038058;28;20017;-77
2024/01/20 08:55:09;;;;;;;67.03;25.10;;;1.40;99.90;;;;;;5033463;28;20481;-76
2024/01/20 08:57:36;;;;;;;63.42;24.13;;;1.40;99.90;;;;;;5052306;28;20056;-76
2024/01/20 09:00:03;;;;;;;58.08;24.17;;;1.30;99.90;;;;;;5051028;28;20033;-77
2024/01/20 09:02:28;;;;;;;58.53;22.27;;;1.30;99.90;;;;;;5047174;28;20049;-78
2024/01/20 09:04:54;;;;;;;64.35;24.35;;;1.30;99.90;;;;;;5034301;28;20047;-76
2024/01/20 09:07:20;;;;;;;57.58;22.10;;;1.20;99.90;;;;;;5057193;28;20013;-77
2024/01/20 09:09:47;;;;;;;63.72;23.60;;;1.20;99.90;;;;;;5052448;28;20099;-77
2024/01/20 09:12:16;;;;;;;57.45;22.70;;;1.30;99.90;;;;;;5052437;28;20021;-76
2024/01/20 09:14:43;;;;;;;56.85;21.65;;;1.30;99.90;;;;;;5050060;28;20107;-77
2024/01/20 09:17:08;;;;;;;61.95;24.60;;;1.30;99.90;;;;;;5052561;28;20437;-77
2024/01/20 09:19:34;;;;;;;65.78;26.55;;;1.40;99.90;;;;;;5051854;28;20041;-77
2024/01/20 09:22:00;;;;;;;69.07;26.45;;;1.40;99.90;;;;;;5052008;28;20032;-77
2024/01/20 09:24:26;;;;;;;58.15;24.75;;;1.50;99.90;;;;;;5052144;28;20074;-77
2024/01/20 09:26:52;;;;;;;59.42;22.60;;;1.60;99.90;;;;;;5052274;28;20029;-79
2024/01/20 09:29:17;;;;;;;52.10;21.48;;;1.60;99.90;;;;;;5042423;28;20026;-75
2024/01/20 09:31:43;;;;;;;62.92;22.75;;;1.60;99.90;;;;;;5046349;28;20031;-76
2024/01/20 09:34:10;;;;;;;60.20;22.45;;;1.40;99.90;;;;;;5043138;28;20368;-75
2024/01/20 09:36:36;;;;;;;49.78;18.83;;;1.60;99.90;;;;;;5040054;28;20029;-76
2024/01/20 09:39:02;;;;;;;48.72;20.55;;;1.50;99.90;;;;;;5038237;28;20041;-75
2024/01/20 09:41:29;;;;;;;55.40;21.80;;;1.60;99.90;;;;;;5040244;28;20508;-75
2024/01/20 09:43:55;;;;;;;54.55;21.60;;;1.70;99.90;;;;;;5042856;28;20014;-75
2024/01/20 09:46:21;;;;;;;50.00;20.02;;;1.60;99.90;;;;;;5040552;28;20036;-75
2024/01/20 09:48:50;;;;;;;55.40;20.35;;;1.60;99.90;;;;;;5041804;28;20061;-75
2024/01/20 09:51:24;;;;;;;53.42;20.73;;;1.50;99.90;;;;;;5047046;28;20043;-75
2024/01/20 09:53:58;;;;;;;54.22;21.02;;;1.60;99.90;;;;;;5041317;28;20068;-75
2024/01/20 09:56:24;;;;;;;62.80;22.25;;;1.60;99.90;;;;;;5040318;28;20474;-75
2024/01/20 09:58:50;;;;;;;69.53;26.88;;;1.70;99.90;;;;;;5043235;28;20102;-76
2024/01/20 10:01:16;;;;;;;70.82;27.52;;;1.70;99.90;;;;;;5051989;28;20095;-75
2024/01/20 10:03:43;;;;;;;74.07;28.20;;;1.90;99.90;;;;;;5050949;28;20100;-75
2024/01/20 10:06:09;;;;;;;68.85;28.08;;;1.80;99.90;;;;;;5050090;28;20063;-75
2024/01/20 10:08:34;;;;;;;71.80;27.50;;;1.90;99.90;;;;;;5049789;28;20040;-75
2024/01/20 10:11:03;;;;;;;68.07;26.88;;;1.80;99.90;;;;;;5051386;28;20492;-76
2024/01/20 10:13:30;;;;;;;66.82;26.30;;;1.80;99.90;;;;;;5050438;28;20462;-76
2024/01/20 10:15:56;;;;;;;61.70;26.45;;;1.80;99.90;;;;;;5053045;28;20478;-76
2024/01/20 10:18:22;;;;;;;58.20;24.90;;;1.80;99.90;;;;;;5071303;28;20029;-76
2024/01/20 10:20:48;;;;;;;56.38;23.88;;;1.60;99.90;;;;;;5070316;28;20082;-77
2024/01/20 10:23:13;;;;;;;52.83;22.85;;;1.60;99.90;;;;;;5071338;28;20675;-76
2024/01/20 10:25:39;;;;;;;54.03;22.92;;;1.60;99.90;;;;;;5069563;28;20029;-77
2024/01/20 10:28:07;;;;;;;51.08;23.05;;;1.80;99.90;;;;;;5068443;28;20164;-77
2024/01/20 10:30:33;;;;;;;52.45;22.58;;;1.90;99.90;;;;;;5051917;28;20024;-76
2024/01/20 10:32:59;;;;;;;50.08;22.35;;;1.80;99.90;;;;;;5050158;28;20021;-76
2024/01/20 10:35:25;;;;;;;52.80;23.15;;;1.90;99.90;;;;;;5050248;28;20009;-77
2024/01/20 10:37:56;;;;;;;44.33;20.45;;;2.00;99.90;;;;;;5051135;28;20032;-76
2024/01/20 10:40:23;;;;;;;46.72;20.40;;;2.00;99.90;;;;;;5051460;28;20553;-76
2024/01/20 10:43:00;;;;;;;45.65;19.85;;;2.10;99.90;;;;;;5050633;28;20028;-76
2024/01/20 10:45:32;;;;;;;44.25;20.55;;;2.30;99.90;;;;;;5049822;28;20040;-77
2024/01/20 10:47:58;;;;;;;40.42;19.08;;;2.40;99.90;;;;;;5051430;28;20021;-76
2024/01/20 10:50:25;;;;;;;41.70;20.20;;;2.40;99.90;;;;;;5050828;28;20044;-76
2024/01/20 10:52:52;;;;;;;37.13;17.02;;;2.40;99.90;;;;;;5052679;28;20053;-77
2024/01/20 10:55:18;;;;;;;39.47;17.15;;;2.40;99.90;;;;;;5071131;28;20024;-78
2024/01/20 10:57:49;;;;;;;36.17;16.38;;;2.50;99.90;;;;;;5071205;28;20062;-77
2024/01/20 11:00:16;;;;;;;33.83;16.52;;;2.50;99.90;;;;;;5074333;28;20147;-77
2024/01/20 11:02:42;;;;;;;35.28;16.52;;;2.40;99.90;;;;;;5055707;28;20143;-75
2024/01/20 11:05:22;;;;;;;34.80;16.40;;;2.50;99.90;;;;;;5052668;28;20025;-76
2024/01/20 11:08:05;;;;;;;29.23;16.15;;;2.50;99.90;;;;;;5053948;28;20021;-75
2024/01/20 11:10:51;;;;;;;30.45;15.48;;;2.60;99.90;;;;;;5021122;28;20033;-75
2024/01/20 11:13:17;;;;;;;30.83;16.13;;;2.60;99.90;;;;;;5026688;28;20634;-77
2024/01/20 11:15:49;;;;;;;35.22;16.08;;;2.40;99.90;;;;;;5038606;28;20075;-75
2024/01/20 11:18:19;;;;;;;32.50;16.20;;;2.30;99.90;;;;;;5034554;28;20413;-78
2024/01/20 11:21:02;;;;;;;32.60;14.88;;;2.40;99.90;;;;;;5033121;28;20035;-77
2024/01/20 11:23:28;;;;;;;30.85;14.52;;;2.30;99.90;;;;;;5034779;28;20074;-78
2024/01/20 11:25:55;;;;;;;28.50;15.25;;;2.30;99.90;;;;;;5033332;28;20079;-80
2024/01/20 11:28:32;;;;;;;31.40;16.15;;;2.40;99.90;;;;;;5034724;28;20429;-77
2024/01/20 11:30:58;;;;;;;34.55;15.90;;;2.40;99.90;;;;;;5035709;28;20033;-78
2024/01/20 11:33:24;;;;;;;32.42;16.15;;;2.30;99.90;;;;;;5035416;28;20559;-78
2024/01/20 11:35:53;;;;;;;30.02;15.05;;;2.40;99.90;;;;;;5032174;28;20018;-79
2024/01/20 11:38:20;;;;;;;35.13;16.08;;;2.40;99.90;;;;;;5035862;28;20064;-79
2024/01/20 11:41:00;;;;;;;33.60;16.05;;;2.50;99.90;;;;;;5033142;28;20053;-78
2024/01/20 11:43:26;;;;;;;35.72;17.30;;;2.40;99.90;;;;;;5033849;28;20391;-79
2024/01/20 11:45:52;;;;;;;33.17;16.02;;;2.40;99.90;;;;;;5032534;28;20108;-78
2024/01/20 11:48:21;;;;;;;32.38;16.15;;;2.50;99.90;;;;;;5032326;28;20152;-73
2024/01/20 11:50:50;;;;;;;33.60;16.95;;;2.60;99.90;;;;;;5032514;28;20017;-78
2024/01/20 11:53:16;;;;;;;33.47;15.82;;;2.60;99.90;;;;;;5039392;28;20036;-79
2024/01/20 11:55:58;;;;;;;34.30;16.75;;;2.70;99.90;;;;;;5033848;28;20021;-76
2024/01/20 11:58:24;;;;;;;34.78;17.35;;;2.70;99.90;;;;;;5033080;28;20117;-78
2024/01/20 12:00:51;;;;;;;29.63;16.05;;;2.60;99.90;;;;;;5030876;28;20123;-78
2024/01/20 12:03:20;;;;;;;33.30;16.55;;;2.60;99.90;;;;;;5034710;28;20025;-78
2024/01/20 12:05:46;;;;;;;29.63;16.20;;;2.70;99.90;;;;;;5037458;28;20027;-79
2024/01/20 12:08:13;;;;;;;31.45;15.75;;;2.70;99.90;;;;;;5034087;28;20068;-79
2024/01/20 12:10:42;;;;;;;26.48;15.25;;;2.80;99.90;;;;;;5035111;28;20017;-81
2024/01/20 12:13:09;;;;;;;29.85;14.25;;;2.70;99.90;;;;;;5036411;28;20029;-80
2024/01/20 12:15:36;;;;;;;26.63;14.02;;;2.70;99.90;;;;;;5031576;28;20887;-79
2024/01/20 12:18:02;;;;;;;23.60;13.10;;;2.80;99.90;;;;;;5033540;28;20084;-79
2024/01/20 12:20:28;;;;;;;23.58;13.00;;;2.80;99.90;;;;;;5034311;28;20041;-80
2024/01/20 12:23:00;;;;;;;22.13;11.50;;;2.80;99.90;;;;;;5033683;28;20441;-80
2024/01/20 12:25:32;;;;;;;24.08;12.05;;;2.90;99.90;;;;;;5031371;28;20084;-78
2024/01/20 12:27:59;;;;;;;22.35;12.20;;;3.00;99.90;;;;;;5037173;28;22329;-80
2024/01/20 12:30:26;;;;;;;20.38;12.65;;;2.90;99.90;;;;;;5032856;28;20025;-79
2024/01/20 12:32:53;;;;;;;25.27;13.23;;;2.80;99.90;;;;;;5036551;28;20017;-79